KTRMKCRQ

Guest
Details From KTRM - Jacqueline Cochran Rgnl
To KCRQ - Mc Clellan Palomar
Flight Number -
Tags generated
Created
Modified
Stats Distance 64 nm / 118 km
Max Altitude 2,100 ft / 640 m
Waypoints 3
Social Downloads 3
Likes 0
Share VATSIM

Download

Looking for another format? Having issues loading an existing format? Contact us
Advertisement - Login to hide

Notes

Basic altitude profile: - Ascent Rate: 2500ft/min - Ascent Speed: 250kts - Cruise Altitude: 35000ft - Cruise Speed: 420kts - Descent Rate: 1500ft/min - Descent Speed: 250kts Options: - Use NATs: yes - Use PACOTS: yes - Use low airways: yes - Use high airways: yes

Route

KTRM ROBNN KCRQ

ID Type Via Altitude Latitude Longitude Leg Dist Tot Dist Heading (true) Name
O KTRM APT - 0 ft / 0 m 33.62639˚ -116.16079˚ - 0 nm - Jacqueline Cochran Rgnl
ROBNN FIX - 2,100 ft / 640 m 33.20348˚ -117.10349˚ 53 nm 53 nm 242° / 241° -
O KCRQ APT - 0 ft / 0 m 33.12827˚ -117.27997˚ 9 nm 63 nm 243° / 243° Mc Clellan Palomar

Altitude Profile

Advertisement - Login to hide

KTRM

Details ICAO KTRM (TRM)
Name Jacqueline Cochran Rgnl
Region United States
Timezone America/Los_Angeles (UTC-8.0)
Stats Elevation -115 ft / -35 m (AMSL)
Location 33.626391° -116.160792°
Runways 2
Magnetic Variation 11.463° E

METAR

KTRM 141852Z AUTO 31010KT 10SM CLR 27/M14 A3002 RMK AO2 SLP164 T02721144

Decode

TAF

TAF KTRM 141720Z 1418/1518 33015G25KT P6SM SKC FM142300 32009G16KT P6SM SKC FM150300 VRB06KT P6SM SKC

Decode

Departure Runways

ID Width Length Bearing (true) Bearing (mag) Surface Threshold Offset Overrun Length
12 98 ft / 30 m 4,997 ft / 1,523 m 135.14° 123.68° Asphalt 0 ft / 0 m 0 ft / 0 m
17 151 ft / 46 m 8,525 ft / 2,598 m 180.02° 168.56° Asphalt 0 ft / 0 m 200 ft / 61 m
30 98 ft / 30 m 4,997 ft / 1,523 m 315.15° 303.69° Asphalt 0 ft / 0 m 0 ft / 0 m
35 151 ft / 46 m 8,525 ft / 2,598 m 0.02° 348.56° Asphalt 0 ft / 0 m 200 ft / 61 m

KCRQ

Details ICAO KCRQ (CLD)
Name Mc Clellan Palomar
Region United States
Timezone America/Los_Angeles (UTC-8.0)
Stats Elevation 331 ft / 101 m (AMSL)
Location 33.128268° -117.279967°
Runways 1
Magnetic Variation 11.618° E

METAR

KCRQ 141853Z AUTO 24006KT 10SM CLR 19/M04 A3002 RMK AO2 SLP163 T01941044

Decode

TAF

TAF KCRQ 141720Z 1418/1518 28007KT P6SM SKC FM142300 VRB04KT P6SM SKC WS020/06025KT FM150400 VRB04KT P6SM SKC FM151300 VRB04KT P6SM SKC WS010/08025KT

Decode

Destination Runways

ID Width Length Bearing (true) Bearing (mag) Surface Threshold Offset Overrun Length
06 151 ft / 46 m 4,954 ft / 1,510 m 79.08° 67.46° Asphalt 299 ft / 91 m 200 ft / 61 m
24 151 ft / 46 m 4,954 ft / 1,510 m 259.09° 247.47° Asphalt 0 ft / 0 m 200 ft / 61 m

Approach Navaids

Runway Type Ident Frequency Range Bearing (true) Bearing (mag) Slope Elevation
24 Localiser ICRQ 108.70 MHz 18 nm / 33 km 259.07° 247.46° - 325 ft / 99 m (AMSL)
24 Glidescope ICRQ 108.70 MHz 10 nm / 19 km 259.09° 247.47° 3.20° 319 ft / 97 m (AMSL)
24 DME ICRQ 108.70 MHz 18 nm / 33 km - - - 325 ft / 99 m (AMSL)